Time;durP1;ratioP1;P1;durP2;ratioP2;P2;SDS_P1;SDS_P2;PMS_P1;PMS_P2;Temp;Humidity;BMP_temperature;BMP_pressure;BME280_temperature;BME280_humidity;BME280_pressure;Samples;Min_cycle;Max_cycle;Signal;HPM_P1;HPM_P2
2022/08/02 00:02:25;;;;;;;10.50;7.10;;;;;;;21.24;100.00;99146.19;1786755;78;21129;-67
2022/08/02 00:04:52;;;;;;;11.53;6.50;;;;;;;21.27;100.00;99144.08;1778501;80;21056;-68
2022/08/02 00:07:18;;;;;;;11.43;6.20;;;;;;;21.31;100.00;99148.33;1774765;80;21559;-67
2022/08/02 00:09:45;;;;;;;9.20;6.97;;;;;;;21.32;100.00;99147.98;1774604;80;21085;-67
2022/08/02 00:12:11;;;;;;;9.78;6.70;;;;;;;21.30;100.00;99143.36;1791982;79;21066;-67
2022/08/02 00:14:37;;;;;;;7.92;6.78;;;;;;;21.23;100.00;99143.75;1811565;78;21511;-67
2022/08/02 00:17:05;;;;;;;8.65;7.10;;;;;;;21.16;100.00;99147.15;1804650;78;21020;-67
2022/08/02 00:19:31;;;;;;;10.58;7.17;;;;;;;21.12;100.00;99143.48;1801682;78;21016;-67
2022/08/02 00:21:58;;;;;;;9.35;6.83;;;;;;;21.06;100.00;99135.77;1802294;78;21072;-67
2022/08/02 00:24:24;;;;;;;8.70;6.83;;;;;;;21.01;100.00;99136.05;1805775;78;20965;-67
2022/08/02 00:26:50;;;;;;;7.30;6.30;;;;;;;20.98;100.00;99137.54;1801761;78;21461;-67
2022/08/02 00:29:17;;;;;;;8.05;7.10;;;;;;;20.98;100.00;99138.11;1799831;78;21605;-67
2022/08/02 00:31:43;;;;;;;8.75;7.50;;;;;;;20.96;100.00;99132.95;1805971;78;21038;-67
2022/08/02 00:34:09;;;;;;;10.15;7.10;;;;;;;20.93;100.00;99137.02;1786102;79;21022;-67
2022/08/02 00:36:36;;;;;;;8.83;6.55;;;;;;;20.87;100.00;99136.45;1780722;79;21559;-67
2022/08/02 00:39:02;;;;;;;9.03;6.83;;;;;;;20.80;100.00;99130.72;1770611;79;21084;-67
2022/08/02 00:41:28;;;;;;;12.43;6.65;;;;;;;20.72;100.00;99133.90;1781984;79;21125;-67
2022/08/02 00:43:55;;;;;;;10.75;7.08;;;;;;;20.69;100.00;99132.42;1778438;78;21582;-68
2022/08/02 00:46:21;;;;;;;10.20;7.22;;;;;;;20.68;100.00;99132.19;1753796;81;21046;-67
2022/08/02 00:48:48;;;;;;;8.95;7.20;;;;;;;20.66;100.00;99135.29;1787154;78;21485;-67
2022/08/02 00:51:14;;;;;;;9.48;7.28;;;;;;;20.65;100.00;99137.81;1796022;78;21027;-67
2022/08/02 00:53:40;;;;;;;9.20;6.55;;;;;;;20.65;100.00;99139.80;1777955;79;20966;-68
2022/08/02 00:56:07;;;;;;;11.33;6.60;;;;;;;20.66;100.00;99140.01;1783766;78;21545;-67
2022/08/02 00:58:33;;;;;;;11.43;6.95;;;;;;;20.64;100.00;99133.47;1787451;78;21920;-67
2022/08/02 01:01:00;;;;;;;10.88;8.60;;;;;;;20.63;100.00;99141.53;1783501;78;21089;-67
2022/08/02 01:03:27;;;;;;;8.65;7.17;;;;;;;20.59;100.00;99136.47;1766449;79;21014;-67
2022/08/02 01:05:53;;;;;;;13.28;8.20;;;;;;;20.55;100.00;99141.09;1787680;79;21385;-67
2022/08/02 01:08:20;;;;;;;10.60;7.92;;;;;;;20.55;100.00;99131.98;1779625;79;21498;-67
2022/08/02 01:10:46;;;;;;;10.25;7.70;;;;;;;20.59;100.00;99135.66;1782324;79;21501;-67
2022/08/02 01:13:13;;;;;;;10.60;8.35;;;;;;;20.58;100.00;99134.85;1773515;79;21077;-67
2022/08/02 01:15:43;;;;;;;11.68;9.00;;;;;;;20.61;100.00;99138.33;1774107;78;21011;-66
2022/08/02 01:18:19;;;;;;;11.33;9.45;;;;;;;20.63;100.00;99137.38;1803770;77;21593;-67
2022/08/02 01:21:11;;;;;;;;;;;;;;;20.59;100.00;99136.47;1778699;78;20993;-67
2022/08/02 01:24:13;;;;;;;10.32;8.38;;;;;;;20.60;100.00;99137.28;1776301;79;20104;-66
2022/08/02 01:27:12;;;;;;;11.03;9.18;;;;;;;20.59;100.00;99134.28;1781976;79;21130;-67
2022/08/02 01:29:43;;;;;;;10.80;9.70;;;;;;;20.56;100.00;99134.98;1776744;79;21035;-67
2022/08/02 01:32:16;;;;;;;13.53;9.68;;;;;;;20.40;100.00;99130.80;1776563;79;21059;-67
2022/08/02 01:34:53;;;;;;;14.07;9.55;;;;;;;20.47;100.00;99142.64;1784167;79;20984;-67
2022/08/02 01:37:27;;;;;;;14.30;9.50;;;;;;;20.48;100.00;99137.31;1778046;79;21047;-66
2022/08/02 01:39:56;;;;;;;12.58;9.25;;;;;;;20.46;100.00;99127.20;1782601;79;20971;-67
2022/08/02 01:42:24;;;;;;;12.90;9.45;;;;;;;20.42;100.00;99131.81;1778087;79;21011;-66
2022/08/02 01:44:50;;;;;;;14.40;9.58;;;;;;;20.41;100.00;99130.20;1811622;77;21401;-67
2022/08/02 01:47:20;;;;;;;12.13;9.60;;;;;;;20.43;100.00;99134.25;1778733;79;21098;-66
2022/08/02 01:49:50;;;;;;;11.35;9.38;;;;;;;20.44;100.00;99128.92;1773248;79;20966;-67
2022/08/02 01:52:21;;;;;;;12.75;9.23;;;;;;;20.44;100.00;99132.29;1794443;79;21098;-67
2022/08/02 01:55:05;;;;;;;13.20;10.75;;;;;;;20.40;100.00;99127.23;1789342;79;21520;-67
2022/08/02 01:57:38;;;;;;;16.02;11.00;;;;;;;20.40;100.00;99127.23;1802813;78;21042;-67
2022/08/02 02:00:08;;;;;;;15.40;10.32;;;;;;;20.44;100.00;99122.01;1788683;78;21010;-67
2022/08/02 02:02:36;;;;;;;10.95;9.20;;;;;;;20.45;100.00;99121.44;1799756;78;21068;-66
2022/08/02 02:05:04;;;;;;;13.15;8.83;;;;;;;20.43;100.00;99121.00;1784690;78;21042;-67
2022/08/02 02:07:32;;;;;;;12.60;7.97;;;;;;;20.42;100.00;99125.72;1767070;78;21588;-67
2022/08/02 02:09:59;;;;;;;12.35;7.97;;;;;;;20.39;100.00;99121.47;1767525;78;20939;-67
2022/08/02 02:12:25;;;;;;;10.55;7.92;;;;;;;20.34;100.00;99121.12;1790414;78;21524;-67
2022/08/02 02:14:51;;;;;;;11.33;7.33;;;;;;;20.31;100.00;99115.73;1786199;79;21030;-68
2022/08/02 02:17:21;;;;;;;9.48;7.28;;;;;;;20.27;100.00;99117.59;1789949;79;21010;-67
2022/08/02 02:19:47;;;;;;;12.43;7.75;;;;;;;20.20;100.00;99121.49;1780701;79;21019;-67
2022/08/02 02:22:13;;;;;;;9.33;6.90;;;;;;;20.19;100.00;99122.64;1766115;79;21400;-67
2022/08/02 02:24:40;;;;;;;7.92;6.47;;;;;;;20.18;100.00;99111.38;1801741;78;21023;-68
2022/08/02 02:29:51;;;;;;;10.82;7.83;;;;;;;20.20;100.00;99099.96;1882794;74;22722;-66
2022/08/02 02:32:18;;;;;;;11.30;7.50;;;;;;;20.09;100.00;99106.55;1848013;75;21035;-68
2022/08/02 02:34:45;;;;;;;10.85;7.42;;;;;;;20.06;100.00;99108.64;1833859;77;21037;-68
2022/08/02 02:37:21;;;;;;;10.98;7.58;;;;;;;20.07;100.00;99107.50;1789282;79;21078;-68
2022/08/02 02:39:49;;;;;;;10.32;8.35;;;;;;;20.10;100.00;99094.36;1790144;79;21029;-67
2022/08/02 02:42:17;;;;;;;9.58;7.40;;;;;;;20.14;100.00;99096.65;1792328;78;21028;-68
2022/08/02 02:44:44;;;;;;;13.10;8.45;;;;;;;20.12;100.00;99103.09;1792640;79;21013;-68
2022/08/02 02:47:10;;;;;;;9.13;7.08;;;;;;;20.11;100.00;99101.50;1800896;79;21707;-68
2022/08/02 02:49:37;;;;;;;11.45;7.45;;;;;;;20.16;100.00;99102.63;1767005;80;21028;-67
2022/08/02 02:52:04;;;;;;;8.35;6.83;;;;;;;20.17;100.00;99099.28;1789528;79;21094;-67
2022/08/02 02:54:32;;;;;;;10.05;6.42;;;;;;;20.17;100.00;99097.33;1796801;79;21046;-68
2022/08/02 02:56:58;;;;;;;9.33;7.15;;;;;;;20.14;100.00;99099.41;1796270;79;21017;-68
2022/08/02 02:59:25;;;;;;;7.58;6.17;;;;;;;20.09;100.00;99098.84;1790179;79;21108;-68
2022/08/02 03:01:52;;;;;;;7.20;5.72;;;;;;;20.10;100.00;99100.45;1771556;78;21085;-68
2022/08/02 03:04:19;;;;;;;7.10;5.67;;;;;;;20.10;100.00;99095.73;1768533;80;21076;-67
2022/08/02 03:06:45;;;;;;;7.92;5.58;;;;;;;20.06;100.00;99084.34;1767339;80;21477;-68
2022/08/02 03:09:12;;;;;;;7.92;5.58;;;;;;;20.12;100.00;99096.18;1793556;79;21000;-67
2022/08/02 03:11:38;;;;;;;8.80;6.95;;;;;;;20.07;100.00;99100.59;1783555;79;21037;-68
2022/08/02 03:14:09;;;;;;;6.80;5.40;;;;;;;20.05;100.00;99097.95;1731234;80;21615;-68
2022/08/02 03:16:45;;;;;;;7.33;5.30;;;;;;;20.09;100.00;99102.98;1766705;80;21018;-68
2022/08/02 03:19:12;;;;;;;7.12;5.92;;;;;;;20.09;100.00;99094.13;1767396;80;21057;-68
2022/08/02 03:21:38;;;;;;;7.58;5.28;;;;;;;20.07;100.00;99097.02;1786683;79;21030;-68
2022/08/02 03:24:05;;;;;;;8.30;5.92;;;;;;;20.02;100.00;99099.44;1788106;79;21614;-67
2022/08/02 03:26:33;;;;;;;7.25;5.85;;;;;;;20.06;100.00;99111.41;1765587;80;22023;-68
2022/08/02 03:28:59;;;;;;;6.45;5.80;;;;;;;20.05;100.00;99102.88;1789913;79;21684;-68
2022/08/02 03:31:25;;;;;;;8.90;6.00;;;;;;;20.03;100.00;99105.20;1790129;78;21100;-67
2022/08/02 03:33:54;;;;;;;7.85;5.40;;;;;;;20.01;100.00;99110.28;1790278;79;21006;-68
2022/08/02 03:36:20;;;;;;;7.35;5.67;;;;;;;20.01;100.00;99113.05;1789791;79;21066;-68
2022/08/02 03:38:47;;;;;;;5.85;5.25;;;;;;;20.00;100.00;99106.47;1790999;79;21524;-68
2022/08/02 03:41:15;;;;;;;8.25;5.58;;;;;;;19.99;100.00;99108.42;1791430;77;21000;-67
2022/08/02 03:43:43;;;;;;;9.55;5.83;;;;;;;20.00;100.00;99107.28;1792985;79;21585;-67
2022/08/02 03:46:09;;;;;;;8.98;6.33;;;;;;;20.02;100.00;99111.06;1791009;79;21125;-67
2022/08/02 03:48:36;;;;;;;6.53;5.75;;;;;;;19.96;100.00;99103.61;1768546;80;21595;-65
2022/08/02 03:51:02;;;;;;;6.30;5.28;;;;;;;19.94;100.00;99100.40;1794112;79;20976;-65
2022/08/02 03:53:29;;;;;;;7.22;5.45;;;;;;;19.97;100.00;99107.17;1792354;79;21027;-66
2022/08/02 03:55:55;;;;;;;8.73;5.72;;;;;;;19.96;100.00;99102.22;1790803;78;21575;-65
2022/08/02 03:58:22;;;;;;;7.15;5.80;;;;;;;19.94;100.00;99096.25;1764134;80;20983;-65
2022/08/02 04:00:49;;;;;;;7.00;5.92;;;;;;;19.98;100.00;99095.76;1796760;79;21027;-66
2022/08/02 04:03:15;;;;;;;6.40;5.55;;;;;;;20.05;100.00;99089.06;1785216;79;21589;-66
2022/08/02 04:05:42;;;;;;;6.72;6.08;;;;;;;20.08;100.00;99096.68;1776413;79;21050;-65
2022/08/02 04:08:08;;;;;;;8.43;6.15;;;;;;;20.10;100.00;99092.98;1776557;80;21120;-66
2022/08/02 04:11:29;;;;;;;8.25;6.08;;;;;;;20.06;100.00;99086.53;1789287;79;20998;-66
2022/08/02 04:13:05;;;;;;;8.00;6.00;;;;;;;20.07;100.00;99085.39;1784989;79;21092;-65
2022/08/02 04:15:32;;;;;;;7.83;6.12;;;;;;;20.11;100.00;99090.45;1785597;79;21012;-67
2022/08/02 04:17:58;;;;;;;9.28;6.17;;;;;;;20.11;100.00;99090.45;1764738;80;21034;-65
2022/08/02 04:20:29;;;;;;;7.35;6.65;;;;;;;20.12;100.00;99098.16;1789047;79;21016;-66
2022/08/02 04:23:07;;;;;;;10.68;7.50;;;;;;;20.11;100.00;99109.79;1790322;79;21087;-66
2022/08/02 04:25:33;;;;;;;8.90;6.50;;;;;;;20.07;100.00;99106.11;1773271;80;21038;-66
2022/08/02 04:28:00;;;;;;;8.25;6.40;;;;;;;20.10;100.00;99102.64;1784921;79;21065;-66
2022/08/02 04:30:28;;;;;;;9.15;7.37;;;;;;;20.15;100.00;99103.80;1781162;79;21064;-66
2022/08/02 04:32:54;;;;;;;8.93;6.50;;;;;;;20.14;100.00;99103.56;1787345;79;21032;-65
2022/08/02 04:35:21;;;;;;;8.20;6.67;;;;;;;20.15;100.00;99099.65;1790282;79;21024;-66
2022/08/02 04:37:47;;;;;;;10.93;6.60;;;;;;;20.21;100.00;99098.81;1790495;79;21552;-66
2022/08/02 04:40:17;;;;;;;8.93;6.90;;;;;;;20.26;100.00;99099.36;1760019;80;21056;-66
2022/08/02 04:42:43;;;;;;;9.50;7.20;;;;;;;20.25;100.00;99094.20;1762041;78;21555;-66
2022/08/02 04:45:10;;;;;;;9.50;7.12;;;;;;;20.24;100.00;99099.48;1785985;79;21014;-66
2022/08/02 04:47:36;;;;;;;7.92;6.97;;;;;;;20.26;100.00;99094.44;1786286;78;21062;-66
2022/08/02 04:50:03;;;;;;;8.28;7.30;;;;;;;20.29;100.00;99101.48;1796182;79;20972;-65
2022/08/02 04:52:29;;;;;;;10.13;7.67;;;;;;;20.28;100.00;99105.39;1789503;79;21637;-67
2022/08/02 04:54:56;;;;;;;9.60;7.72;;;;;;;20.25;100.00;99110.78;1785422;80;21030;-65
2022/08/02 05:00:08;;;;;;;10.00;7.62;;;;;;;20.29;100.00;99111.15;1750495;80;21029;-69
2022/08/02 05:02:35;;;;;;;10.63;7.50;;;;;;;20.25;100.00;99112.97;1764954;80;21055;-68
2022/08/02 05:05:02;;;;;;;9.58;7.45;;;;;;;20.26;100.00;99120.09;1763764;80;21038;-68
2022/08/02 05:07:28;;;;;;;9.50;7.15;;;;;;;20.31;100.00;99119.08;1789536;79;20999;-68
2022/08/02 05:09:55;;;;;;;11.55;7.17;;;;;;;20.33;100.00;99118.16;1789105;79;21056;-68
2022/08/02 05:12:21;;;;;;;10.53;7.40;;;;;;;20.37;100.00;99118.27;1786698;79;21497;-68
2022/08/02 05:14:48;;;;;;;10.68;7.22;;;;;;;20.35;100.00;99124.94;1790019;79;21016;-68
2022/08/02 05:17:14;;;;;;;9.65;7.53;;;;;;;20.39;100.00;99131.14;1792253;77;21641;-68
2022/08/02 05:19:40;;;;;;;11.80;7.20;;;;;;;20.43;100.00;99127.34;1764919;80;20986;-68
2022/08/02 05:22:07;;;;;;;10.10;7.60;;;;;;;20.48;100.00;99119.34;1787475;79;21022;-68
2022/08/02 05:24:34;;;;;;;10.32;7.92;;;;;;;20.53;100.00;99121.88;1792699;79;21153;-68
2022/08/02 05:27:00;;;;;;;12.93;8.75;;;;;;;20.61;100.00;99129.22;1790339;79;21024;-67
2022/08/02 05:29:27;;;;;;;10.75;7.83;;;;;;;20.65;100.00;99128.75;1766022;80;21025;-68
2022/08/02 05:31:53;;;;;;;11.75;7.37;;;;;;;20.69;100.00;99130.43;1765896;80;21034;-73
2022/08/02 05:34:20;;;;;;;15.10;7.62;;;;;;;20.77;100.00;99134.20;1722645;81;21118;-72
2022/08/02 05:36:46;;;;;;;13.28;7.17;;;;;;;20.81;100.00;99133.72;1745792;80;21027;-73
2022/08/02 05:39:13;;;;;;;11.78;6.95;;;;;;;20.79;100.00;99139.63;1785015;79;21010;-73
2022/08/02 05:41:39;;;;;;;8.68;6.45;;;;;;;20.82;100.00;99137.53;1774782;79;21030;-72
2022/08/02 05:44:06;;;;;;;11.33;6.10;;;;;;;20.89;100.00;99139.68;1782570;79;21062;-73
2022/08/02 05:46:32;;;;;;;9.93;6.78;;;;;;;20.93;100.00;99141.97;1787311;79;21051;-73
2022/08/02 05:48:59;;;;;;;12.30;6.92;;;;;;;20.92;100.00;99146.46;1758525;80;21219;-73
2022/08/02 05:51:38;;;;;;;10.72;7.00;;;;;;;20.92;100.00;99150.03;1793240;79;21099;-73
2022/08/02 05:54:13;;;;;;;9.85;7.05;;;;;;;20.94;100.00;99149.69;1796349;79;21072;-72
2022/08/02 05:56:55;;;;;;;10.98;7.70;;;;;;;20.96;100.00;99156.47;1773339;79;21061;-73
2022/08/02 05:59:58;;;;;;;14.75;7.40;;;;;;;21.00;100.00;99149.08;1772767;79;21006;-73
2022/08/02 06:02:40;;;;;;;10.32;6.80;;;;;;;21.02;100.00;99151.47;1783880;79;21066;-72
2022/08/02 06:05:15;;;;;;;8.75;6.37;;;;;;;21.04;100.00;99159.66;1777558;79;21016;-73
2022/08/02 06:07:43;;;;;;;11.93;6.55;;;;;;;21.09;100.00;99162.73;1779708;79;21030;-73
2022/08/02 06:10:15;;;;;;;11.15;6.80;;;;;;;21.14;100.00;99157.78;1776573;80;21533;-73
2022/08/02 06:12:53;;;;;;;9.45;7.20;;;;;;;21.12;100.00;99160.09;1778188;79;20994;-73
2022/08/02 06:15:20;;;;;;;9.15;6.95;;;;;;;21.05;100.00;99165.97;1773784;79;21002;-72
2022/08/02 06:17:46;;;;;;;9.90;7.20;;;;;;;20.97;100.00;99169.16;1777046;79;21078;-72
2022/08/02 06:20:14;;;;;;;11.03;6.92;;;;;;;21.00;100.00;99173.98;1780338;80;21922;-72
2022/08/02 06:22:46;;;;;;;15.53;6.97;;;;;;;21.04;100.00;99179.03;1790656;79;21025;-72
2022/08/02 06:25:11;;;;;;;12.70;7.70;;;;;;;21.10;100.00;99185.09;1788963;79;21029;-72
2022/08/02 06:27:40;;;;;;;10.20;7.15;;;;;;;21.13;100.00;99189.38;1788041;79;21561;-72
2022/08/02 06:30:08;;;;;;;9.68;7.45;;;;;;;21.10;100.00;99193.41;1769845;80;21037;-73
2022/08/02 06:32:35;;;;;;;10.45;7.62;;;;;;;21.08;100.00;99195.73;1751306;80;21107;-72
2022/08/02 06:35:03;;;;;;;12.33;8.05;;;;;;;21.07;100.00;99196.88;1752867;81;21075;-71
2022/08/02 06:37:54;;;;;;;11.18;8.18;;;;;;;21.01;100.00;99196.31;1760950;80;21069;-73
2022/08/02 06:40:34;;;;;;;9.55;7.80;;;;;;;21.03;100.00;99195.98;1724081;80;21027;-73
2022/08/02 06:43:19;;;;;;;12.25;7.95;;;;;;;21.05;100.00;99195.84;1752982;79;21054;-80
2022/08/02 06:45:46;;;;;;;11.78;7.53;;;;;;;21.07;100.00;99196.88;1749892;81;21089;-78
2022/08/02 06:48:12;;;;;;;10.80;7.42;;;;;;;21.07;100.00;99192.73;1712517;82;21155;-76
2022/08/02 06:50:40;;;;;;;9.30;7.47;;;;;;;21.13;100.00;99188.57;1740171;81;21029;-75
2022/08/02 06:53:08;;;;;;;9.48;6.90;;;;;;;21.14;100.00;99187.42;1759461;81;21097;-75
2022/08/02 06:55:35;;;;;;;8.85;6.95;;;;;;;21.13;100.00;99185.80;1758235;81;21664;-74
2022/08/02 06:58:02;;;;;;;9.30;7.35;;;;;;;21.06;100.00;99181.42;1724289;81;21014;-75
2022/08/02 07:00:29;;;;;;;9.28;6.90;;;;;;;20.99;100.00;99185.39;1765548;81;20987;-74
2022/08/02 07:02:56;;;;;;;11.63;8.45;;;;;;;20.96;100.00;99182.76;1742602;81;21075;-74
2022/08/02 07:05:23;;;;;;;15.83;8.40;;;;;;;20.95;100.00;99185.86;1759985;81;21000;-74
2022/08/02 07:07:49;;;;;;;11.70;8.08;;;;;;;20.97;100.00;99187.72;1762361;80;21088;-73
2022/08/02 07:10:16;;;;;;;13.55;9.13;;;;;;;21.05;100.00;99185.34;1750723;81;21040;-73
2022/08/02 07:12:42;;;;;;;13.53;8.78;;;;;;;21.14;100.00;99187.42;1755659;81;21439;-73
2022/08/02 07:15:11;;;;;;;15.85;8.63;;;;;;;21.14;100.00;99184.08;1751566;81;21078;-74
2022/08/02 07:17:37;;;;;;;12.45;9.40;;;;;;;21.11;100.00;99180.64;1765711;81;21107;-73
2022/08/02 07:20:06;;;;;;;11.53;8.65;;;;;;;21.03;100.00;99182.14;1757250;80;21016;-73
2022/08/02 07:22:34;;;;;;;13.45;8.45;;;;;;;21.04;100.00;99180.42;1713631;82;21106;-73
2022/08/02 07:25:01;;;;;;;11.78;8.55;;;;;;;21.00;100.00;99178.13;1707494;81;21022;-73
2022/08/02 07:27:28;;;;;;;13.48;9.08;;;;;;;20.93;100.00;99180.70;1739146;81;21606;-73
2022/08/02 07:29:54;;;;;;;14.23;8.73;;;;;;;20.92;100.00;99182.42;1768781;79;21836;-73
2022/08/02 07:32:24;;;;;;;12.95;8.80;;;;;;;20.96;100.00;99173.64;1795023;78;21018;-73
2022/08/02 07:34:51;;;;;;;10.80;8.60;;;;;;;20.96;100.00;99179.99;1791560;79;21068;-74
2022/08/02 07:37:18;;;;;;;10.60;8.38;;;;;;;20.95;100.00;99181.14;1785637;79;21077;-78
2022/08/02 07:39:45;;;;;;;11.85;8.43;;;;;;;20.96;100.00;99174.45;1781579;80;21607;-75
2022/08/02 07:42:29;;;;;;;10.95;8.43;;;;;;;21.02;100.00;99184.09;1788383;77;21095;-72
2022/08/02 07:44:56;;;;;;;11.35;8.90;;;;;;;21.00;100.00;99195.30;1794969;79;21030;-72
2022/08/02 07:47:22;;;;;;;11.05;9.85;;;;;;;21.02;100.00;99191.02;1760226;80;21882;-71
2022/08/02 07:49:49;;;;;;;10.88;9.30;;;;;;;21.00;100.00;99194.73;1788792;80;21025;-73
2022/08/02 07:52:16;;;;;;;11.30;9.45;;;;;;;21.01;100.00;99195.54;1772888;79;21009;-72
2022/08/02 07:54:42;;;;;;;10.80;9.15;;;;;;;20.97;100.00;99196.83;1771617;79;21036;-73
2022/08/02 07:57:09;;;;;;;11.48;9.70;;;;;;;20.99;100.00;99192.30;1772534;80;21017;-71
2022/08/02 07:59:35;;;;;;;14.45;9.20;;;;;;;20.98;100.00;99195.64;1773800;79;21597;-73
2022/08/02 08:02:02;;;;;;;11.12;8.83;;;;;;;20.92;100.00;99196.26;1779654;79;21069;-74
2022/08/02 08:04:29;;;;;;;10.85;9.60;;;;;;;20.92;100.00;99194.88;1790138;80;21029;-73
2022/08/02 08:06:56;;;;;;;10.48;8.53;;;;;;;20.80;100.00;99199.88;1785738;79;21050;-72
2022/08/02 08:09:22;;;;;;;10.18;8.68;;;;;;;20.74;100.00;99193.80;1784282;80;21663;-74
2022/08/02 08:11:49;;;;;;;10.80;8.70;;;;;;;20.72;100.00;99192.55;1766390;80;21011;-74
2022/08/02 08:14:15;;;;;;;10.45;8.35;;;;;;;20.66;100.00;99195.32;1762165;81;21007;-73
2022/08/02 08:16:41;;;;;;;11.08;9.20;;;;;;;20.64;100.00;99205.37;1793421;79;21061;-74
2022/08/02 08:19:08;;;;;;;12.55;9.33;;;;;;;20.66;100.00;99206.38;1778596;80;21054;-74
2022/08/02 08:21:35;;;;;;;11.20;9.43;;;;;;;20.68;100.00;99213.19;1787583;78;21121;-74
2022/08/02 08:24:03;;;;;;;10.90;9.15;;;;;;;20.72;100.00;99209.95;1786097;79;21605;-74
2022/08/02 08:26:30;;;;;;;11.12;9.68;;;;;;;20.67;100.00;99212.95;1773255;79;21112;-74
2022/08/02 08:28:56;;;;;;;13.45;9.95;;;;;;;20.67;100.00;99219.06;1764975;80;21397;-73
2022/08/02 08:31:22;;;;;;;12.43;9.80;;;;;;;20.72;100.00;99218.25;1746022;80;21570;-74
2022/08/02 08:33:48;;;;;;;13.62;10.75;;;;;;;20.76;100.00;99212.83;1788642;80;21507;-74
2022/08/02 08:36:15;;;;;;;13.00;11.33;;;;;;;20.81;100.00;99213.94;1767142;80;21581;-73
2022/08/02 08:38:42;;;;;;;21.05;14.45;;;;;;;20.83;100.00;99222.11;1787853;79;21002;-74
2022/08/02 08:41:08;;;;;;;21.40;15.63;;;;;;;20.88;100.00;99215.52;1760738;80;21038;-73
2022/08/02 08:43:36;;;;;;;19.62;16.85;;;;;;;20.84;100.00;99218.77;1794038;79;20981;-73
2022/08/02 08:46:02;;;;;;;26.42;19.70;;;;;;;20.88;100.00;99219.67;1765019;80;20993;-73
2022/08/02 08:48:30;;;;;;;29.72;21.25;;;;;;;20.90;100.00;99217.38;1760646;80;21020;-73
2022/08/02 08:51:09;;;;;;;27.55;20.30;;;;;;;20.90;100.00;99228.44;1761364;80;21017;-73
2022/08/02 08:53:40;;;;;;;29.32;20.05;;;;;;;20.86;100.00;99223.38;1743202;81;21061;-73
2022/08/02 08:56:07;;;;;;;28.32;21.35;;;;;;;20.78;100.00;99227.09;1765832;80;21094;-73
2022/08/02 08:58:34;;;;;;;29.50;21.52;;;;;;;20.69;100.00;99233.36;1762585;80;21498;-73
2022/08/02 09:01:00;;;;;;;28.32;20.80;;;;;;;20.75;100.00;99231.37;1761231;80;21070;-73
2022/08/02 09:03:27;;;;;;;27.05;21.15;;;;;;;20.86;100.00;99239.98;1798300;79;21007;-71
2022/08/02 09:05:54;;;;;;;26.25;21.52;;;;;;;20.92;100.00;99241.91;1772327;79;21003;-74
2022/08/02 09:08:22;;;;;;;30.90;22.50;;;;;;;20.87;100.00;99243.55;1698737;81;21036;-74
2022/08/02 09:10:49;;;;;;;29.87;20.95;;;;;;;20.81;100.00;99242.98;1764999;81;21059;-74
2022/08/02 09:13:22;;;;;;;29.05;21.87;;;;;;;20.81;100.00;99245.17;1784776;79;21545;-74
2022/08/02 09:16:00;;;;;;;29.40;22.65;;;;;;;20.91;100.00;99250.78;1793026;80;20965;-74
2022/08/02 09:18:36;;;;;;;32.13;23.18;;;;;;;20.98;100.00;99248.22;1770916;80;21022;-74
2022/08/02 09:21:06;;;;;;;37.95;25.95;;;;;;;21.04;100.00;99254.32;1789801;79;21670;-75
2022/08/02 09:23:45;;;;;;;39.58;26.75;;;;;;;21.04;100.00;99262.63;1780004;79;20970;-76
2022/08/02 09:26:17;;;;;;;35.83;27.35;;;;;;;21.01;100.00;99268.26;1772718;77;21578;-75
2022/08/02 09:28:47;;;;;;;40.50;27.82;;;;;;;20.94;100.00;99274.19;1784730;79;20992;-75
2022/08/02 09:31:17;;;;;;;35.30;27.00;;;;;;;20.80;100.00;99275.37;1756666;80;21582;-74
2022/08/02 09:33:44;;;;;;;42.58;28.20;;;;;;;20.72;100.00;99272.76;1762986;80;21517;-75
2022/08/02 09:36:15;;;;;;;38.58;26.87;;;;;;;20.64;100.00;99270.92;1784417;79;21060;-76
2022/08/02 09:39:00;;;;;;;37.00;26.48;;;;;;;20.60;100.00;99274.16;1764827;79;21668;-70
2022/08/02 09:41:34;;;;;;;36.70;25.65;;;;;;;20.63;100.00;99267.35;1777058;80;21612;-69
2022/08/02 09:44:04;;;;;;;36.38;25.30;;;;;;;20.71;100.00;99266.99;1770588;79;21470;-69
2022/08/02 09:46:41;;;;;;;35.38;25.00;;;;;;;20.61;100.00;99270.25;1765612;79;21074;-67
2022/08/02 09:49:11;;;;;;;37.78;23.57;;;;;;;20.58;100.00;99266.20;1787071;79;20971;-67
2022/08/02 09:51:48;;;;;;;28.57;20.12;;;;;;;20.60;100.00;99273.59;1775382;79;21044;-67
2022/08/02 09:54:19;;;;;;;23.83;18.23;;;;;;;20.52;100.00;99255.73;1767631;81;21011;-68
2022/08/02 09:56:49;;;;;;;28.95;17.55;;;;;;;20.47;100.00;99267.05;1793451;77;21071;-68
2022/08/02 09:59:17;;;;;;;26.52;17.82;;;;;;;20.46;100.00;99267.63;1768353;81;20983;-67
2022/08/02 10:01:45;;;;;;;24.72;17.17;;;;;;;20.44;100.00;99264.98;1781622;79;21066;-67
2022/08/02 10:04:12;;;;;;;29.15;19.32;;;;;;;20.44;100.00;99271.90;1779585;79;21378;-68
2022/08/02 10:06:42;;;;;;;24.37;16.97;;;;;;;20.44;100.00;99269.13;1766844;80;21002;-67
2022/08/02 10:09:10;;;;;;;27.98;18.95;;;;;;;20.45;100.00;99271.53;1787113;79;21039;-67
2022/08/02 10:11:36;;;;;;;26.25;17.55;;;;;;;20.50;100.00;99271.88;1757199;80;21208;-69
2022/08/02 10:14:05;;;;;;;26.17;18.50;;;;;;;20.51;100.00;99278.42;1772223;80;20971;-70
2022/08/02 10:16:38;;;;;;;26.50;18.75;;;;;;;20.51;100.00;99280.41;1790131;79;21495;-69
2022/08/02 10:19:05;;;;;;;26.73;18.60;;;;;;;20.44;100.00;99275.44;1778831;80;21022;-68
2022/08/02 10:21:43;;;;;;;27.87;18.17;;;;;;;20.40;100.00;99275.13;1773367;80;21112;-70
2022/08/02 10:24:19;;;;;;;25.02;17.25;;;;;;;20.39;100.00;99278.46;1772846;80;21015;-70
2022/08/02 10:26:47;;;;;;;27.22;17.57;;;;;;;20.38;100.00;99274.65;1761313;80;21651;-68
2022/08/02 10:29:16;;;;;;;25.43;17.95;;;;;;;20.34;100.00;99279.49;1764808;80;21696;-68
2022/08/02 10:32:03;;;;;;;27.40;17.90;;;;;;;20.32;100.00;99279.05;1786450;79;21603;-68
2022/08/02 10:34:39;;;;;;;24.35;16.97;;;;;;;20.31;100.00;99284.34;1770237;80;21009;-67
2022/08/02 10:37:06;;;;;;;25.00;16.75;;;;;;;20.20;100.00;99273.48;1780007;79;21078;-68
2022/08/02 10:39:44;;;;;;;24.32;16.05;;;;;;;20.12;100.00;99262.57;1785311;79;21034;-68
2022/08/02 10:42:11;;;;;;;25.48;16.85;;;;;;;20.13;100.00;99262.20;1780849;79;21078;-67
2022/08/02 10:44:38;;;;;;;29.20;17.25;;;;;;;20.09;100.00;99262.66;1749818;81;21082;-69
2022/08/02 10:47:21;;;;;;;25.92;17.48;;;;;;;20.06;100.00;99260.59;1783228;79;21046;-67
2022/08/02 10:49:51;;;;;;;33.02;20.27;;;;;;;20.04;100.00;99260.72;1784646;79;21841;-67
2022/08/02 10:52:29;;;;;;;28.73;19.62;;;;;;;20.02;100.00;99257.48;1762256;80;21050;-67
2022/08/02 10:55:00;;;;;;;28.60;19.23;;;;;;;20.02;100.00;99258.86;1788514;79;21446;-67
2022/08/02 10:57:31;;;;;;;30.88;18.62;;;;;;;20.12;100.00;99263.34;1784615;80;21789;-67
2022/08/02 11:00:05;;;;;;;28.27;18.80;;;;;;;20.23;100.00;99263.69;1785167;80;21022;-67
2022/08/02 11:02:41;;;;;;;34.92;19.73;;;;;;;20.35;100.00;99257.62;1752987;79;21530;-67
2022/08/02 11:05:11;;;;;;;;;;;;;;;20.41;100.00;99257.36;1787681;79;21048;-67
2022/08/02 11:07:45;;;;;;;28.42;18.90;;;;;;;20.46;100.00;99255.75;1765585;80;20418;-67
2022/08/02 11:10:36;;;;;;;28.75;19.48;;;;;;;20.46;100.00;99262.67;1784895;80;21054;-67
2022/08/02 11:13:15;;;;;;;25.85;18.77;;;;;;;20.41;100.00;99260.13;1760422;80;21035;-66
2022/08/02 11:16:00;;;;;;;27.75;18.62;;;;;;;20.44;100.00;99260.84;1769272;81;21066;-67
2022/08/02 11:18:54;;;;;;;29.15;18.37;;;;;;;20.49;100.00;99253.67;1784904;80;21026;-67
2022/08/02 11:21:28;;;;;;;26.93;17.87;;;;;;;20.53;100.00;99258.73;1762164;79;21050;-66
2022/08/02 11:23:55;;;;;;;28.40;17.90;;;;;;;20.60;100.00;99263.91;1785198;80;20989;-66
2022/08/02 11:26:36;;;;;;;29.05;18.80;;;;;;;20.69;100.00;99257.65;1768964;79;21608;-66
2022/08/02 11:29:04;;;;;;;23.45;16.23;;;;;;;20.71;100.00;99244.87;1768383;80;21428;-66
2022/08/02 11:31:41;;;;;;;23.32;16.67;;;;;;;20.75;100.00;99246.59;1793560;79;21129;-67
2022/08/02 11:34:08;;;;;;;20.70;15.35;;;;;;;20.82;100.00;99248.17;1790434;80;20935;-66